createdAt,value
2023-04-14T00:01:19.246Z,2.80
2023-04-14T00:05:23.907Z,2.75
2023-04-14T00:09:27.053Z,2.95
2023-04-14T00:13:29.973Z,2.20
2023-04-14T00:17:33.144Z,2.30
2023-04-14T00:21:37.430Z,2.65
2023-04-14T00:25:40.468Z,3.08
2023-04-14T00:29:43.388Z,2.65
2023-04-14T00:33:46.330Z,3.28
2023-04-14T00:37:51.687Z,3.20
2023-04-14T00:41:54.562Z,3.08
2023-04-14T00:45:57.637Z,2.83
2023-04-14T00:50:00.567Z,3.13
2023-04-14T00:54:07.951Z,3.50
2023-04-14T00:58:11.352Z,3.38
2023-04-14T01:02:14.605Z,3.42
2023-04-14T01:06:17.857Z,3.00
2023-04-14T01:10:22.409Z,3.33
2023-04-14T01:14:34.375Z,3.60
2023-04-14T01:18:47.251Z,3.20
2023-04-14T01:22:54.975Z,3.35
2023-04-14T01:27:12.686Z,3.67
2023-04-14T01:35:32.754Z,3.33
2023-04-14T01:39:38.917Z,3.97
2023-04-14T01:43:46.495Z,3.65
2023-04-14T01:47:52.919Z,3.70
2023-04-14T01:56:02.124Z,3.97
2023-04-14T02:00:08.714Z,4.15
2023-04-14T02:04:20.240Z,3.67
2023-04-14T02:08:25.445Z,4.03
2023-04-14T02:12:30.269Z,4.20
2023-04-14T02:16:35.319Z,4.13
2023-04-14T02:20:44.770Z,4.20
2023-04-14T02:24:47.921Z,4.30
2023-04-14T02:28:54.870Z,4.35
2023-04-14T02:33:02.769Z,4.43
2023-04-14T02:37:11.308Z,4.07
2023-04-14T02:41:20.611Z,5.30
2023-04-14T02:45:26.646Z,4.95
2023-04-14T02:49:30.772Z,4.53
2023-04-14T02:53:35.838Z,4.57
2023-04-14T02:57:56.524Z,3.97
2023-04-14T03:02:04.346Z,3.70
2023-04-14T03:06:09.819Z,3.10
2023-04-14T03:10:14.494Z,4.15
2023-04-14T03:14:19.310Z,3.70
2023-04-14T03:18:23.526Z,4.82
2023-04-14T03:22:28.298Z,3.60
2023-04-14T03:26:34.253Z,3.80
2023-04-14T03:30:42.364Z,3.40
2023-04-14T03:34:49.480Z,3.03
2023-04-14T03:38:55.689Z,3.15
2023-04-14T03:43:01.256Z,3.13
2023-04-14T03:47:05.046Z,3.10
2023-04-14T03:51:10.966Z,2.65
2023-04-14T03:55:18.737Z,2.47
2023-04-14T03:59:26.611Z,2.97
2023-04-14T04:03:30.460Z,2.80
2023-04-14T04:07:35.016Z,3.15
2023-04-14T04:11:39.798Z,3.00
2023-04-14T04:15:46.470Z,3.33
2023-04-14T04:19:51.037Z,4.07
2023-04-14T04:23:56.527Z,4.18
2023-04-14T04:28:02.104Z,4.60
2023-04-14T04:32:08.017Z,5.10
2023-04-14T04:36:13.029Z,5.63
2023-04-14T04:40:18.757Z,5.82
2023-04-14T04:44:24.553Z,6.57
2023-04-14T04:48:28.818Z,6.53
2023-04-14T04:52:32.098Z,6.72
2023-04-14T04:56:35.492Z,7.03
2023-04-14T05:00:38.350Z,7.18
2023-04-14T05:04:42.572Z,6.90
2023-04-14T05:08:45.602Z,6.78
2023-04-14T05:12:48.518Z,7.07
2023-04-14T05:16:51.576Z,7.18
2023-04-14T05:20:55.838Z,6.47
2023-04-14T05:24:58.759Z,6.03
2023-04-14T05:29:01.892Z,6.72
2023-04-14T05:33:05.042Z,6.75
2023-04-14T05:37:09.467Z,6.30
2023-04-14T05:41:13.008Z,6.60
2023-04-14T05:45:16.316Z,5.60
2023-04-14T05:49:19.165Z,6.15
2023-04-14T05:53:23.675Z,5.47
2023-04-14T05:57:26.603Z,5.30
2023-04-14T06:01:29.659Z,5.55
2023-04-14T06:05:33.780Z,4.97
2023-04-14T06:09:37.965Z,4.65
2023-04-14T06:13:40.865Z,4.30
2023-04-14T06:17:44.083Z,4.30
2023-04-14T06:21:47.247Z,4.20
2023-04-14T06:25:52.237Z,4.38
2023-04-14T06:29:55.044Z,4.25
2023-04-14T06:33:57.879Z,3.60
2023-04-14T06:38:00.786Z,4.20
2023-04-14T06:42:05.092Z,4.47
2023-04-14T06:46:08.062Z,4.00
2023-04-14T06:50:12.234Z,4.05
2023-04-14T06:54:15.362Z,3.67
2023-04-14T06:58:19.647Z,3.80
2023-04-14T07:02:22.657Z,4.00
2023-04-14T07:06:26.391Z,4.25
2023-04-14T07:10:29.221Z,3.45
2023-04-14T07:14:33.887Z,3.20
2023-04-14T07:18:36.932Z,3.67
2023-04-14T07:22:39.839Z,3.38
2023-04-14T07:26:42.906Z,3.20
2023-04-14T07:30:47.084Z,3.60
2023-04-14T07:34:49.897Z,3.30
2023-04-14T07:38:52.720Z,3.60
2023-04-14T07:42:55.666Z,3.47
2023-04-14T07:46:59.908Z,3.50
2023-04-14T07:51:03.061Z,3.10
2023-04-14T07:55:06.852Z,3.10
2023-04-14T07:59:09.732Z,4.00
2023-04-14T08:03:14.799Z,2.80
2023-04-14T08:07:17.787Z,2.92
2023-04-14T08:11:20.616Z,2.60
2023-04-14T08:15:23.437Z,3.17
2023-04-14T08:19:27.635Z,3.20
2023-04-14T08:23:30.530Z,2.92
2023-04-14T08:27:33.365Z,2.92
2023-04-14T08:31:36.314Z,2.50
2023-04-14T08:35:42.669Z,2.60
2023-04-14T08:39:46.555Z,2.63
2023-04-14T08:43:49.393Z,2.80
2023-04-14T08:47:56.536Z,2.50
2023-04-14T08:52:03.266Z,2.90
2023-04-14T08:56:09.458Z,2.58
2023-04-14T09:00:13.729Z,2.20
2023-04-14T09:04:17.627Z,2.08
2023-04-14T09:08:22.604Z,2.60
2023-04-14T09:12:27.235Z,3.00
2023-04-14T09:16:31.020Z,2.60
2023-04-14T09:20:40.209Z,2.75
2023-04-14T09:24:45.884Z,2.72
2023-04-14T09:28:48.736Z,3.17
2023-04-14T09:32:53.709Z,3.85
2023-04-14T09:37:04.971Z,2.70
2023-04-14T09:41:09.801Z,2.97
2023-04-14T09:45:12.669Z,2.92
2023-04-14T09:49:15.626Z,4.50
2023-04-14T09:53:26.738Z,5.88
2023-04-14T09:57:31.100Z,3.38
2023-04-14T10:01:34.945Z,4.15
2023-04-14T10:05:37.902Z,5.13
2023-04-14T10:09:41.697Z,3.63
2023-04-14T10:13:45.940Z,2.88
2023-04-14T10:17:48.871Z,2.78
2023-04-14T10:21:52.622Z,3.50
2023-04-14T10:25:56.506Z,3.35
2023-04-14T10:30:01.182Z,3.35
2023-04-14T10:34:09.206Z,2.85
2023-04-14T10:38:12.009Z,3.33
2023-04-14T10:42:14.947Z,3.70
2023-04-14T10:46:19.363Z,2.80
2023-04-14T10:50:25.114Z,3.00
2023-04-14T10:54:27.947Z,2.67
2023-04-14T10:58:31.253Z,4.10
2023-04-14T11:02:36.000Z,2.40
2023-04-14T11:06:55.702Z,2.78
2023-04-14T11:11:02.809Z,2.22
2023-04-14T11:15:06.714Z,1.60
2023-04-14T11:19:16.267Z,1.90
2023-04-14T11:23:19.261Z,2.20
2023-04-14T11:27:22.185Z,2.17
2023-04-14T11:31:28.499Z,1.80
2023-04-14T11:35:33.026Z,1.90
2023-04-14T11:39:36.548Z,1.90
2023-04-14T11:43:46.186Z,1.88
2023-04-14T11:47:58.865Z,1.77
2023-04-14T11:52:08.083Z,1.80
2023-04-14T11:56:12.763Z,1.63
2023-04-14T12:00:16.243Z,1.20
2023-04-14T12:04:19.324Z,1.15
2023-04-14T12:08:24.925Z,1.20
2023-04-14T12:12:28.971Z,1.40
2023-04-14T12:16:33.122Z,1.52
2023-04-14T12:20:42.988Z,1.67
2023-04-14T12:24:47.285Z,1.45
2023-04-14T12:28:57.406Z,1.95
2023-04-14T12:33:00.408Z,1.90
2023-04-14T12:37:08.431Z,2.20
2023-04-14T12:41:22.739Z,2.00
2023-04-14T12:45:25.780Z,2.10
2023-04-14T12:49:37.398Z,2.45
2023-04-14T12:53:41.296Z,2.00
2023-04-14T12:57:45.570Z,2.22
2023-04-14T13:01:48.786Z,2.45
2023-04-14T13:05:51.690Z,2.05
2023-04-14T13:09:54.764Z,2.28
2023-04-14T13:13:59.019Z,2.10
2023-04-14T13:18:01.879Z,2.38
2023-04-14T13:22:04.832Z,2.30
2023-04-14T13:26:07.814Z,1.17
2023-04-14T13:30:12.955Z,0.90
2023-04-14T13:34:16.172Z,0.75
2023-04-14T13:38:19.094Z,1.40
2023-04-14T13:42:22.061Z,1.55
2023-04-14T13:46:26.393Z,1.10
2023-04-14T13:50:29.752Z,1.35
2023-04-14T13:54:32.669Z,1.13
2023-04-14T13:58:37.053Z,2.00
2023-04-14T14:02:41.813Z,1.70
2023-04-14T14:06:44.771Z,1.83
2023-04-14T14:10:47.611Z,1.88
2023-04-14T14:14:50.629Z,1.42
2023-04-14T14:18:54.904Z,1.40
2023-04-14T14:22:57.773Z,1.60
2023-04-14T14:27:01.214Z,1.35
2023-04-14T14:31:06.333Z,1.42
2023-04-14T14:35:11.904Z,1.20
2023-04-14T14:39:14.732Z,1.33
2023-04-14T14:43:17.534Z,1.60
2023-04-14T14:47:21.654Z,1.92
2023-04-14T14:51:27.658Z,2.13
2023-04-14T14:55:30.517Z,2.30
2023-04-14T14:59:34.478Z,2.10
2023-04-14T15:03:37.528Z,2.10
2023-04-14T15:07:41.819Z,1.92
2023-04-14T15:11:44.700Z,1.77
2023-04-14T15:15:47.681Z,0.98
2023-04-14T15:19:50.753Z,1.27
2023-04-14T15:23:55.191Z,0.88
2023-04-14T15:27:58.060Z,1.00
2023-04-14T15:32:01.345Z,0.85
2023-04-14T15:36:04.428Z,1.80
2023-04-14T15:40:10.576Z,1.33
2023-04-14T15:44:13.552Z,2.00
2023-04-14T15:48:16.447Z,1.33
2023-04-14T15:52:19.353Z,1.40
2023-04-14T15:56:24.395Z,1.30
2023-04-14T16:00:27.271Z,1.50
2023-04-14T16:04:30.559Z,1.60
2023-04-14T16:08:33.779Z,1.80
2023-04-14T16:12:38.065Z,1.70
2023-04-14T16:16:43.246Z,1.17
2023-04-14T16:20:50.401Z,2.60
2023-04-14T16:24:53.896Z,2.60
2023-04-14T16:28:58.150Z,2.75
2023-04-14T16:33:01.273Z,2.30
2023-04-14T16:37:04.247Z,2.72
2023-04-14T16:41:07.161Z,2.53
2023-04-14T16:45:12.141Z,2.50
2023-04-14T16:49:16.094Z,2.20
2023-04-14T16:53:19.303Z,2.00
2023-04-14T16:57:22.268Z,2.25
2023-04-14T17:01:27.496Z,3.25
2023-04-14T17:05:30.690Z,2.30
2023-04-14T17:09:33.522Z,2.35
2023-04-14T17:13:36.407Z,2.33
2023-04-14T17:17:40.641Z,2.17
2023-04-14T17:21:44.590Z,1.83
2023-04-14T17:25:48.139Z,2.00
2023-04-14T17:29:51.124Z,1.60
2023-04-14T17:33:56.112Z,1.65
2023-04-14T17:37:58.990Z,2.35
2023-04-14T17:42:02.396Z,2.25
2023-04-14T17:46:06.331Z,2.00
2023-04-14T17:50:11.433Z,1.83
2023-04-14T17:54:14.353Z,1.40
2023-04-14T17:58:17.202Z,1.70
2023-04-14T18:02:20.458Z,1.52
2023-04-14T18:06:24.884Z,1.90
2023-04-14T18:10:27.903Z,1.30
2023-04-14T18:14:31.078Z,1.20
2023-04-14T18:18:34.081Z,1.42
2023-04-14T18:22:38.354Z,1.63
2023-04-14T18:26:41.289Z,1.67
2023-04-14T18:30:44.219Z,1.50
2023-04-14T18:34:47.223Z,2.75
2023-04-14T18:38:51.447Z,2.15
2023-04-14T18:42:54.689Z,2.03
2023-04-14T18:46:57.650Z,1.40
2023-04-14T18:51:04.304Z,1.90
2023-04-14T18:55:09.736Z,2.05
2023-04-14T18:59:12.666Z,1.80
2023-04-14T19:03:15.691Z,2.03
2023-04-14T19:07:18.931Z,2.28
2023-04-14T19:11:23.580Z,2.38
2023-04-14T19:15:27.546Z,2.20
2023-04-14T19:19:30.852Z,1.70
2023-04-14T19:23:34.129Z,1.90
2023-04-14T19:27:38.847Z,1.75
2023-04-14T19:31:42.179Z,1.33
2023-04-14T19:35:45.277Z,1.63
2023-04-14T19:39:48.193Z,2.13
2023-04-14T19:43:52.743Z,1.90
2023-04-14T19:47:55.799Z,1.88
2023-04-14T19:51:58.705Z,2.38
2023-04-14T19:56:02.044Z,2.35
2023-04-14T20:00:08.072Z,2.55
2023-04-14T20:04:14.997Z,2.20
2023-04-14T20:08:18.023Z,2.45
2023-04-14T20:12:20.963Z,2.50
2023-04-14T20:16:26.453Z,2.22
2023-04-14T20:20:29.527Z,2.00
2023-04-14T20:24:32.761Z,2.28
2023-04-14T20:28:35.699Z,2.22
2023-04-14T20:32:39.943Z,2.28
2023-04-14T20:36:44.889Z,2.50
2023-04-14T20:40:47.876Z,2.72
2023-04-14T20:44:50.612Z,2.45
2023-04-14T20:48:54.718Z,3.10
2023-04-14T20:52:57.541Z,2.20
2023-04-14T20:57:03.486Z,3.47
2023-04-14T21:01:06.335Z,2.53
2023-04-14T21:05:12.751Z,3.13
2023-04-14T21:09:15.565Z,2.38
2023-04-14T21:15:24.985Z,2.40
2023-04-14T21:17:41.215Z,2.78
2023-04-14T21:21:46.729Z,2.55
2023-04-14T21:25:49.822Z,2.65
2023-04-14T21:29:52.675Z,2.88
2023-04-14T21:33:55.531Z,2.40
2023-04-14T21:37:59.716Z,2.40
2023-04-14T21:42:03.571Z,2.40
2023-04-14T21:46:06.700Z,2.67
2023-04-14T21:50:10.829Z,2.53
2023-04-14T21:54:15.163Z,2.50
2023-04-14T21:58:18.009Z,2.60
2023-04-14T22:02:21.500Z,2.80
2023-04-14T22:06:24.858Z,2.58
2023-04-14T22:10:32.182Z,3.42
2023-04-14T22:14:36.116Z,3.17
2023-04-14T22:18:39.561Z,2.63
2023-04-14T22:22:42.344Z,3.10
2023-04-14T22:26:47.066Z,2.95
2023-04-14T22:30:49.959Z,4.22
2023-04-14T22:34:52.873Z,3.67
2023-04-14T22:38:55.716Z,2.90
2023-04-14T22:42:59.961Z,3.13
2023-04-14T22:47:02.869Z,3.38
2023-04-14T22:51:05.717Z,3.65
2023-04-14T22:55:09.167Z,3.55
2023-04-14T22:59:13.387Z,2.97
2023-04-14T23:03:16.639Z,2.75
2023-04-14T23:07:19.796Z,2.53
2023-04-14T23:11:22.787Z,2.88
2023-04-14T23:15:27.573Z,2.55
2023-04-14T23:19:32.919Z,2.28
2023-04-14T23:23:35.788Z,2.92
2023-04-14T23:27:38.912Z,2.22
2023-04-14T23:31:43.161Z,2.72
2023-04-14T23:35:46.444Z,3.30
2023-04-14T23:39:49.321Z,2.38
2023-04-14T23:43:52.141Z,2.85
2023-04-14T23:47:58.477Z,2.80
2023-04-14T23:52:01.335Z,3.30
2023-04-14T23:56:04.875Z,2.88
